sensor_id;sensor_type;location;lat;lon;timestamp;pressure;altitude;pressure_sealevel;temperature;humidity
4972;BME280;2501;51.214;6.768;2023-02-22T00:01:02;101253.75;;;5.79;100.00
4972;BME280;2501;51.214;6.768;2023-02-22T00:03:47;101253.81;;;5.55;100.00
4972;BME280;2501;51.214;6.768;2023-02-22T00:06:17;101259.03;;;5.30;100.00
4972;BME280;2501;51.214;6.768;2023-02-22T00:08:47;101254.41;;;5.23;100.00
4972;BME280;2501;51.214;6.768;2023-02-22T00:11:17;101260.38;;;5.19;100.00
4972;BME280;2501;51.214;6.768;2023-02-22T00:13:46;101262.16;;;5.21;100.00
4972;BME280;2501;51.214;6.768;2023-02-22T00:16:19;101251.31;;;5.58;100.00
4972;BME280;2501;51.214;6.768;2023-02-22T00:18:49;101250.50;;;5.34;100.00
4972;BME280;2501;51.214;6.768;2023-02-22T00:21:18;101245.72;;;5.22;100.00
4972;BME280;2501;51.214;6.768;2023-02-22T00:23:47;101249.09;;;5.20;100.00
4972;BME280;2501;51.214;6.768;2023-02-22T00:26:20;101245.38;;;5.12;100.00
4972;BME280;2501;51.214;6.768;2023-02-22T00:28:51;101240.41;;;5.43;100.00
4972;BME280;2501;51.214;6.768;2023-02-22T00:31:23;101240.59;;;5.24;100.00
4972;BME280;2501;51.214;6.768;2023-02-22T00:33:51;101235.31;;;5.22;100.00
4972;BME280;2501;51.214;6.768;2023-02-22T00:36:20;101250.50;;;5.10;100.00
4972;BME280;2501;51.214;6.768;2023-02-22T00:38:48;101237.16;;;5.25;100.00
4972;BME280;2501;51.214;6.768;2023-02-22T00:41:17;101242.00;;;5.14;100.00
4972;BME280;2501;51.214;6.768;2023-02-22T00:43:45;101238.50;;;5.14;100.00
4972;BME280;2501;51.214;6.768;2023-02-22T00:46:14;101240.94;;;5.09;100.00
4972;BME280;2501;51.214;6.768;2023-02-22T00:48:45;101233.84;;;5.05;100.00
4972;BME280;2501;51.214;6.768;2023-02-22T00:51:13;101236.41;;;5.04;100.00
4972;BME280;2501;51.214;6.768;2023-02-22T00:53:42;101230.16;;;4.99;100.00
4972;BME280;2501;51.214;6.768;2023-02-22T00:56:10;101226.16;;;5.08;100.00
4972;BME280;2501;51.214;6.768;2023-02-22T00:58:39;101227.22;;;4.89;100.00
4972;BME280;2501;51.214;6.768;2023-02-22T01:01:08;101228.66;;;4.81;100.00
4972;BME280;2501;51.214;6.768;2023-02-22T01:03:37;101225.84;;;4.75;100.00
4972;BME280;2501;51.214;6.768;2023-02-22T01:06:08;101222.66;;;4.82;100.00
4972;BME280;2501;51.214;6.768;2023-02-22T01:08:36;101219.44;;;4.66;100.00
4972;BME280;2501;51.214;6.768;2023-02-22T01:11:05;101211.44;;;4.85;100.00
4972;BME280;2501;51.214;6.768;2023-02-22T01:13:34;101208.97;;;4.64;100.00
4972;BME280;2501;51.214;6.768;2023-02-22T01:16:03;101204.00;;;4.70;100.00
4972;BME280;2501;51.214;6.768;2023-02-22T01:18:32;101207.75;;;4.78;100.00
4972;BME280;2501;51.214;6.768;2023-02-22T01:21:01;101202.44;;;4.75;100.00
4972;BME280;2501;51.214;6.768;2023-02-22T01:23:32;101198.59;;;4.64;100.00
4972;BME280;2501;51.214;6.768;2023-02-22T01:26:00;101199.63;;;4.69;100.00
4972;BME280;2501;51.214;6.768;2023-02-22T01:28:30;101206.66;;;4.72;100.00
4972;BME280;2501;51.214;6.768;2023-02-22T01:30:58;101193.25;;;4.85;100.00
4972;BME280;2501;51.214;6.768;2023-02-22T01:33:27;101201.81;;;4.81;100.00
4972;BME280;2501;51.214;6.768;2023-02-22T01:35:56;101196.16;;;4.93;100.00
4972;BME280;2501;51.214;6.768;2023-02-22T01:38:24;101193.81;;;4.76;100.00
4972;BME280;2501;51.214;6.768;2023-02-22T01:40:55;101190.16;;;4.71;100.00
4972;BME280;2501;51.214;6.768;2023-02-22T01:43:28;101188.31;;;4.67;100.00
4972;BME280;2501;51.214;6.768;2023-02-22T01:45:59;101186.69;;;4.47;100.00
4972;BME280;2501;51.214;6.768;2023-02-22T01:48:38;101178.00;;;4.70;100.00
4972;BME280;2501;51.214;6.768;2023-02-22T01:51:13;101185.59;;;4.64;100.00
4972;BME280;2501;51.214;6.768;2023-02-22T01:53:47;101166.41;;;4.84;100.00
4972;BME280;2501;51.214;6.768;2023-02-22T01:56:20;101177.13;;;4.70;100.00
4972;BME280;2501;51.214;6.768;2023-02-22T01:58:52;101176.84;;;4.62;100.00
4972;BME280;2501;51.214;6.768;2023-02-22T02:01:24;101171.50;;;4.58;100.00
4972;BME280;2501;51.214;6.768;2023-02-22T02:03:56;101168.72;;;4.77;100.00
4972;BME280;2501;51.214;6.768;2023-02-22T02:06:26;101177.94;;;4.69;100.00
4972;BME280;2501;51.214;6.768;2023-02-22T02:08:59;101169.94;;;4.63;100.00
4972;BME280;2501;51.214;6.768;2023-02-22T02:11:32;101164.81;;;4.64;100.00
4972;BME280;2501;51.214;6.768;2023-02-22T02:14:00;101157.44;;;4.76;100.00
4972;BME280;2501;51.214;6.768;2023-02-22T02:16:34;101160.63;;;5.17;100.00
4972;BME280;2501;51.214;6.768;2023-02-22T02:19:10;101155.44;;;4.93;100.00
4972;BME280;2501;51.214;6.768;2023-02-22T02:22:24;101152.66;;;5.12;100.00
4972;BME280;2501;51.214;6.768;2023-02-22T02:25:23;101143.75;;;4.80;100.00
4972;BME280;2501;51.214;6.768;2023-02-22T02:28:36;101149.47;;;4.72;100.00
4972;BME280;2501;51.214;6.768;2023-02-22T02:34:15;101141.91;;;5.03;100.00
4972;BME280;2501;51.214;6.768;2023-02-22T02:36:53;101142.56;;;4.72;100.00
4972;BME280;2501;51.214;6.768;2023-02-22T02:39:27;101143.50;;;4.98;100.00
4972;BME280;2501;51.214;6.768;2023-02-22T02:41:58;101139.16;;;5.49;100.00
4972;BME280;2501;51.214;6.768;2023-02-22T02:44:32;101135.34;;;5.13;100.00
4972;BME280;2501;51.214;6.768;2023-02-22T02:47:04;101130.03;;;5.10;100.00
4972;BME280;2501;51.214;6.768;2023-02-22T02:49:43;101133.00;;;4.95;100.00
4972;BME280;2501;51.214;6.768;2023-02-22T02:52:15;101131.44;;;5.00;100.00
4972;BME280;2501;51.214;6.768;2023-02-22T02:54:45;101124.09;;;5.14;100.00
4972;BME280;2501;51.214;6.768;2023-02-22T02:57:14;101125.84;;;4.89;100.00
4972;BME280;2501;51.214;6.768;2023-02-22T02:59:42;101127.31;;;5.07;100.00
4972;BME280;2501;51.214;6.768;2023-02-22T03:02:26;101114.31;;;5.32;100.00
4972;BME280;2501;51.214;6.768;2023-02-22T03:05:13;101118.78;;;5.11;100.00
4972;BME280;2501;51.214;6.768;2023-02-22T03:07:49;101121.00;;;4.99;100.00
4972;BME280;2501;51.214;6.768;2023-02-22T03:10:41;101120.22;;;5.01;100.00
4972;BME280;2501;51.214;6.768;2023-02-22T03:13:17;101122.53;;;4.94;100.00
4972;BME280;2501;51.214;6.768;2023-02-22T03:15:51;101116.56;;;4.96;100.00
4972;BME280;2501;51.214;6.768;2023-02-22T03:18:24;101114.16;;;5.02;100.00
4972;BME280;2501;51.214;6.768;2023-02-22T03:21:00;101102.03;;;5.01;100.00
4972;BME280;2501;51.214;6.768;2023-02-22T03:23:37;101102.75;;;4.97;100.00
4972;BME280;2501;51.214;6.768;2023-02-22T03:26:14;101102.63;;;4.94;100.00
4972;BME280;2501;51.214;6.768;2023-02-22T03:28:50;101107.34;;;5.06;100.00
4972;BME280;2501;51.214;6.768;2023-02-22T03:31:24;101107.06;;;4.97;100.00
4972;BME280;2501;51.214;6.768;2023-02-22T03:33:56;101110.84;;;5.06;100.00
4972;BME280;2501;51.214;6.768;2023-02-22T03:36:32;101108.00;;;4.99;100.00
4972;BME280;2501;51.214;6.768;2023-02-22T03:39:06;101112.66;;;4.83;100.00
4972;BME280;2501;51.214;6.768;2023-02-22T03:41:43;101107.47;;;4.83;100.00
4972;BME280;2501;51.214;6.768;2023-02-22T03:44:20;101101.38;;;4.83;100.00
4972;BME280;2501;51.214;6.768;2023-02-22T03:46:52;101116.16;;;4.84;100.00
4972;BME280;2501;51.214;6.768;2023-02-22T03:49:28;101106.94;;;4.94;100.00
4972;BME280;2501;51.214;6.768;2023-02-22T03:52:02;101110.97;;;4.85;100.00
4972;BME280;2501;51.214;6.768;2023-02-22T03:54:32;101117.13;;;4.87;100.00
4972;BME280;2501;51.214;6.768;2023-02-22T03:57:07;101105.06;;;4.89;100.00
4972;BME280;2501;51.214;6.768;2023-02-22T03:59:39;101112.84;;;4.89;100.00
4972;BME280;2501;51.214;6.768;2023-02-22T04:02:11;101107.50;;;4.85;100.00
4972;BME280;2501;51.214;6.768;2023-02-22T04:04:43;101106.22;;;4.98;100.00
4972;BME280;2501;51.214;6.768;2023-02-22T04:07:14;101110.72;;;5.03;100.00
4972;BME280;2501;51.214;6.768;2023-02-22T04:09:44;101114.06;;;4.99;100.00
4972;BME280;2501;51.214;6.768;2023-02-22T04:12:12;101108.94;;;5.02;100.00
4972;BME280;2501;51.214;6.768;2023-02-22T04:14:40;101111.31;;;4.95;100.00
4972;BME280;2501;51.214;6.768;2023-02-22T04:17:09;101114.50;;;4.87;100.00
4972;BME280;2501;51.214;6.768;2023-02-22T04:19:37;101112.69;;;4.85;100.00
4972;BME280;2501;51.214;6.768;2023-02-22T04:22:05;101108.59;;;4.92;100.00
4972;BME280;2501;51.214;6.768;2023-02-22T04:24:37;101110.06;;;5.09;100.00
4972;BME280;2501;51.214;6.768;2023-02-22T04:27:05;101100.81;;;4.92;100.00
4972;BME280;2501;51.214;6.768;2023-02-22T04:29:33;101092.78;;;4.85;100.00
4972;BME280;2501;51.214;6.768;2023-02-22T04:32:02;101099.63;;;4.82;100.00
4972;BME280;2501;51.214;6.768;2023-02-22T04:34:31;101093.59;;;4.83;100.00
4972;BME280;2501;51.214;6.768;2023-02-22T04:36:59;101085.88;;;4.86;100.00
4972;BME280;2501;51.214;6.768;2023-02-22T04:39:28;101087.81;;;4.92;100.00
4972;BME280;2501;51.214;6.768;2023-02-22T04:41:59;101080.00;;;4.92;100.00
4972;BME280;2501;51.214;6.768;2023-02-22T04:44:27;101080.66;;;4.84;100.00
4972;BME280;2501;51.214;6.768;2023-02-22T04:46:55;101072.94;;;4.87;100.00
4972;BME280;2501;51.214;6.768;2023-02-22T04:49:27;101076.47;;;4.89;100.00
4972;BME280;2501;51.214;6.768;2023-02-22T04:51:55;101079.72;;;4.82;100.00
4972;BME280;2501;51.214;6.768;2023-02-22T04:54:23;101078.97;;;4.86;100.00
4972;BME280;2501;51.214;6.768;2023-02-22T04:56:52;101077.94;;;4.81;100.00
4972;BME280;2501;51.214;6.768;2023-02-22T04:59:24;101077.41;;;4.92;100.00
4972;BME280;2501;51.214;6.768;2023-02-22T05:01:52;101075.03;;;4.98;100.00
4972;BME280;2501;51.214;6.768;2023-02-22T05:04:21;101075.81;;;4.95;100.00
4972;BME280;2501;51.214;6.768;2023-02-22T05:06:49;101061.59;;;4.85;100.00
4972;BME280;2501;51.214;6.768;2023-02-22T05:09:18;101057.34;;;4.87;100.00
4972;BME280;2501;51.214;6.768;2023-02-22T05:11:46;101064.06;;;4.81;100.00
4972;BME280;2501;51.214;6.768;2023-02-22T05:14:15;101057.16;;;4.81;100.00
4972;BME280;2501;51.214;6.768;2023-02-22T05:16:47;101047.38;;;4.74;100.00
4972;BME280;2501;51.214;6.768;2023-02-22T05:19:15;101053.50;;;4.76;100.00
4972;BME280;2501;51.214;6.768;2023-02-22T05:21:44;101056.28;;;4.81;100.00
4972;BME280;2501;51.214;6.768;2023-02-22T05:24:12;101047.38;;;4.74;100.00
4972;BME280;2501;51.214;6.768;2023-02-22T05:26:42;101044.06;;;4.78;100.00
4972;BME280;2501;51.214;6.768;2023-02-22T05:29:10;101046.75;;;4.81;100.00
4972;BME280;2501;51.214;6.768;2023-02-22T05:31:39;101038.75;;;4.75;100.00
4972;BME280;2501;51.214;6.768;2023-02-22T05:34:10;101043.22;;;4.79;100.00
4972;BME280;2501;51.214;6.768;2023-02-22T05:36:39;101045.09;;;4.83;100.00
4972;BME280;2501;51.214;6.768;2023-02-22T05:39:07;101039.84;;;4.82;100.00
4972;BME280;2501;51.214;6.768;2023-02-22T05:41:36;101028.56;;;4.81;100.00
4972;BME280;2501;51.214;6.768;2023-02-22T05:44:05;101036.38;;;4.81;100.00
4972;BME280;2501;51.214;6.768;2023-02-22T05:46:33;101030.13;;;4.76;100.00
4972;BME280;2501;51.214;6.768;2023-02-22T05:49:01;101029.41;;;4.80;100.00
4972;BME280;2501;51.214;6.768;2023-02-22T05:51:32;101028.34;;;4.75;100.00
4972;BME280;2501;51.214;6.768;2023-02-22T05:54:01;101033.53;;;4.75;100.00
4972;BME280;2501;51.214;6.768;2023-02-22T05:56:29;101034.50;;;4.77;100.00
4972;BME280;2501;51.214;6.768;2023-02-22T05:58:58;101029.50;;;4.83;100.00
4972;BME280;2501;51.214;6.768;2023-02-22T06:01:26;101023.38;;;4.81;100.00
4972;BME280;2501;51.214;6.768;2023-02-22T06:03:55;101029.41;;;4.80;100.00
4972;BME280;2501;51.214;6.768;2023-02-22T06:06:23;101025.03;;;4.79;100.00
4972;BME280;2501;51.214;6.768;2023-02-22T06:08:54;101028.50;;;4.80;100.00
4972;BME280;2501;51.214;6.768;2023-02-22T06:11:23;101024.03;;;4.76;100.00
4972;BME280;2501;51.214;6.768;2023-02-22T06:13:52;101022.16;;;4.72;100.00
4972;BME280;2501;51.214;6.768;2023-02-22T06:16:21;101021.66;;;4.82;100.00
4972;BME280;2501;51.214;6.768;2023-02-22T06:18:49;101025.88;;;4.78;100.00
4972;BME280;2501;51.214;6.768;2023-02-22T06:21:18;101020.66;;;4.78;100.00
4972;BME280;2501;51.214;6.768;2023-02-22T06:23:46;101016.50;;;4.83;100.00
4972;BME280;2501;51.214;6.768;2023-02-22T06:26:18;101012.97;;;4.81;100.00
4972;BME280;2501;51.214;6.768;2023-02-22T06:28:47;101012.75;;;4.75;100.00
4972;BME280;2501;51.214;6.768;2023-02-22T06:31:16;101007.63;;;4.77;100.00
4972;BME280;2501;51.214;6.768;2023-02-22T06:33:44;101011.22;;;4.80;100.00
4972;BME280;2501;51.214;6.768;2023-02-22T06:36:13;101006.84;;;4.79;100.00
4972;BME280;2501;51.214;6.768;2023-02-22T06:38:41;101012.91;;;4.80;100.00
4972;BME280;2501;51.214;6.768;2023-02-22T06:41:09;101016.41;;;4.80;100.00
4972;BME280;2501;51.214;6.768;2023-02-22T06:43:46;101023.47;;;4.84;100.00
4972;BME280;2501;51.214;6.768;2023-02-22T06:46:15;101019.06;;;4.82;100.00
4972;BME280;2501;51.214;6.768;2023-02-22T06:48:43;101022.63;;;4.85;100.00
4972;BME280;2501;51.214;6.768;2023-02-22T06:51:12;101024.50;;;4.89;100.00
4972;BME280;2501;51.214;6.768;2023-02-22T06:53:40;101013.91;;;4.83;100.00
4972;BME280;2501;51.214;6.768;2023-02-22T06:56:12;101021.91;;;4.89;100.00
4972;BME280;2501;51.214;6.768;2023-02-22T06:58:43;101018.72;;;4.98;100.00
4972;BME280;2501;51.214;6.768;2023-02-22T07:01:13;101011.44;;;4.88;100.00
4972;BME280;2501;51.214;6.768;2023-02-22T07:03:42;101019.25;;;4.88;100.00
4972;BME280;2501;51.214;6.768;2023-02-22T07:06:11;101014.97;;;4.90;100.00
4972;BME280;2501;51.214;6.768;2023-02-22T07:08:39;101003.66;;;4.88;100.00
4972;BME280;2501;51.214;6.768;2023-02-22T07:11:07;101013.38;;;4.94;100.00
4972;BME280;2501;51.214;6.768;2023-02-22T07:13:36;101006.16;;;5.12;100.00
4972;BME280;2501;51.214;6.768;2023-02-22T07:16:07;101007.50;;;4.99;100.00
4972;BME280;2501;51.214;6.768;2023-02-22T07:18:35;101002.91;;;4.92;100.00
4972;BME280;2501;51.214;6.768;2023-02-22T07:21:04;100998.16;;;5.06;100.00
4972;BME280;2501;51.214;6.768;2023-02-22T07:23:33;101004.28;;;5.08;100.00
4972;BME280;2501;51.214;6.768;2023-02-22T07:26:02;101001.53;;;5.03;100.00
4972;BME280;2501;51.214;6.768;2023-02-22T07:28:31;101006.25;;;5.15;100.00
4972;BME280;2501;51.214;6.768;2023-02-22T07:31:00;100995.13;;;5.19;100.00
4972;BME280;2501;51.214;6.768;2023-02-22T07:33:32;100998.78;;;5.25;100.00
4972;BME280;2501;51.214;6.768;2023-02-22T07:36:00;101006.50;;;5.22;100.00
4972;BME280;2501;51.214;6.768;2023-02-22T07:38:29;100997.75;;;5.19;100.00
4972;BME280;2501;51.214;6.768;2023-02-22T07:40:58;101001.34;;;5.24;100.00
4972;BME280;2501;51.214;6.768;2023-02-22T07:43:28;101003.56;;;5.40;100.00
4972;BME280;2501;51.214;6.768;2023-02-22T07:45:58;100995.72;;;5.39;100.00
4972;BME280;2501;51.214;6.768;2023-02-22T07:48:28;100989.84;;;5.44;100.00
4972;BME280;2501;51.214;6.768;2023-02-22T07:50:59;100998.03;;;5.58;100.00
4972;BME280;2501;51.214;6.768;2023-02-22T07:53:29;100988.03;;;5.70;100.00
4972;BME280;2501;51.214;6.768;2023-02-22T07:56:00;100988.03;;;5.72;100.00
4972;BME280;2501;51.214;6.768;2023-02-22T07:58:30;100976.94;;;5.77;100.00
4972;BME280;2501;51.214;6.768;2023-02-22T08:00:59;100989.44;;;5.89;100.00
4972;BME280;2501;51.214;6.768;2023-02-22T08:03:31;100980.78;;;5.90;100.00
4972;BME280;2501;51.214;6.768;2023-02-22T08:06:06;100981.72;;;5.92;100.00
4972;BME280;2501;51.214;6.768;2023-02-22T08:08:34;100976.09;;;6.08;100.00
4972;BME280;2501;51.214;6.768;2023-02-22T08:11:03;100970.97;;;6.11;100.00
4972;BME280;2501;51.214;6.768;2023-02-22T08:13:32;100967.44;;;6.09;100.00
4972;BME280;2501;51.214;6.768;2023-02-22T08:16:02;100968.69;;;6.22;100.00
4972;BME280;2501;51.214;6.768;2023-02-22T08:18:30;100964.72;;;6.36;100.00
4972;BME280;2501;51.214;6.768;2023-02-22T08:20:59;100968.16;;;6.35;100.00
4972;BME280;2501;51.214;6.768;2023-02-22T08:23:30;100959.50;;;6.36;100.00
4972;BME280;2501;51.214;6.768;2023-02-22T08:26:03;100960.75;;;6.50;100.00
4972;BME280;2501;51.214;6.768;2023-02-22T08:28:32;100955.75;;;6.59;100.00
4972;BME280;2501;51.214;6.768;2023-02-22T08:31:00;100953.44;;;6.70;100.00
4972;BME280;2501;51.214;6.768;2023-02-22T08:33:32;100958.78;;;6.76;100.00
4972;BME280;2501;51.214;6.768;2023-02-22T08:36:00;100961.53;;;6.82;100.00
4972;BME280;2501;51.214;6.768;2023-02-22T08:38:31;100955.72;;;6.94;100.00
4972;BME280;2501;51.214;6.768;2023-02-22T08:41:00;100955.72;;;6.92;100.00
4972;BME280;2501;51.214;6.768;2023-02-22T08:43:28;100954.44;;;7.13;100.00
4972;BME280;2501;51.214;6.768;2023-02-22T08:45:57;100946.44;;;7.43;100.00
4972;BME280;2501;51.214;6.768;2023-02-22T08:48:25;100940.16;;;7.34;99.07
4972;BME280;2501;51.214;6.768;2023-02-22T08:50:54;100940.06;;;7.31;98.27
4972;BME280;2501;51.214;6.768;2023-02-22T08:53:22;100949.97;;;7.46;97.88
4972;BME280;2501;51.214;6.768;2023-02-22T08:55:53;100947.56;;;7.55;97.43
4972;BME280;2501;51.214;6.768;2023-02-22T08:58:22;100948.47;;;7.57;97.04
4972;BME280;2501;51.214;6.768;2023-02-22T09:00:50;100948.53;;;7.60;96.49
4972;BME280;2501;51.214;6.768;2023-02-22T09:03:19;100945.53;;;7.42;96.64
4972;BME280;2501;51.214;6.768;2023-02-22T09:05:48;100943.38;;;7.63;96.75
4972;BME280;2501;51.214;6.768;2023-02-22T09:08:16;100946.13;;;7.69;96.63
4972;BME280;2501;51.214;6.768;2023-02-22T09:10:45;100931.44;;;7.75;96.35
4972;BME280;2501;51.214;6.768;2023-02-22T09:13:16;100929.50;;;8.10;95.38
4972;BME280;2501;51.214;6.768;2023-02-22T09:15:45;100932.47;;;7.84;95.10
4972;BME280;2501;51.214;6.768;2023-02-22T09:18:14;100935.00;;;7.80;95.45
4972;BME280;2501;51.214;6.768;2023-02-22T09:20:43;100940.38;;;7.87;95.67
4972;BME280;2501;51.214;6.768;2023-02-22T09:23:11;100938.78;;;7.94;95.54
4972;BME280;2501;51.214;6.768;2023-02-22T09:25:43;100943.53;;;8.16;95.05
4972;BME280;2501;51.214;6.768;2023-02-22T09:28:12;100944.94;;;7.99;94.43
4972;BME280;2501;51.214;6.768;2023-02-22T09:30:43;100937.31;;;8.08;94.40
4972;BME280;2501;51.214;6.768;2023-02-22T09:33:15;100934.78;;;8.14;93.95
4972;BME280;2501;51.214;6.768;2023-02-22T09:35:46;100939.22;;;8.18;93.93
4972;BME280;2501;51.214;6.768;2023-02-22T09:38:17;100937.78;;;8.32;93.42
4972;BME280;2501;51.214;6.768;2023-02-22T09:40:49;100930.91;;;8.37;93.15
4972;BME280;2501;51.214;6.768;2023-02-22T09:43:37;100925.25;;;8.63;92.37
4972;BME280;2501;51.214;6.768;2023-02-22T09:46:20;100928.63;;;8.57;91.73
4972;BME280;2501;51.214;6.768;2023-02-22T09:48:59;100923.63;;;8.71;91.26
4972;BME280;2501;51.214;6.768;2023-02-22T09:51:34;100922.56;;;8.58;90.68
4972;BME280;2501;51.214;6.768;2023-02-22T09:54:12;100920.00;;;8.61;90.69
4972;BME280;2501;51.214;6.768;2023-02-22T09:56:45;100919.34;;;8.76;90.12
4972;BME280;2501;51.214;6.768;2023-02-22T09:59:17;100929.94;;;8.85;89.56
4972;BME280;2501;51.214;6.768;2023-02-22T10:01:56;100928.28;;;8.90;88.92
4972;BME280;2501;51.214;6.768;2023-02-22T10:04:37;100919.69;;;8.97;88.72
4972;BME280;2501;51.214;6.768;2023-02-22T10:07:16;100926.78;;;9.06;88.27
4972;BME280;2501;51.214;6.768;2023-02-22T10:09:47;100923.28;;;9.05;87.81
4972;BME280;2501;51.214;6.768;2023-02-22T10:12:27;100915.66;;;9.21;87.34
4972;BME280;2501;51.214;6.768;2023-02-22T10:15:25;100902.06;;;9.48;86.07
4972;BME280;2501;51.214;6.768;2023-02-22T10:18:12;100895.19;;;9.57;85.25
4972;BME280;2501;51.214;6.768;2023-02-22T10:20:50;100897.94;;;9.66;84.21
4972;BME280;2501;51.214;6.768;2023-02-22T10:23:28;100892.56;;;9.57;84.20
4972;BME280;2501;51.214;6.768;2023-02-22T10:26:12;100893.72;;;9.79;83.39
4972;BME280;2501;51.214;6.768;2023-02-22T10:28:46;100895.41;;;9.75;82.99
4972;BME280;2501;51.214;6.768;2023-02-22T10:31:24;100883.13;;;9.71;82.55
4972;BME280;2501;51.214;6.768;2023-02-22T10:33:59;100894.63;;;9.83;82.21
4972;BME280;2501;51.214;6.768;2023-02-22T10:36:30;100893.97;;;10.00;81.25
4972;BME280;2501;51.214;6.768;2023-02-22T10:39:18;100886.06;;;9.99;80.82
4972;BME280;2501;51.214;6.768;2023-02-22T10:41:51;100881.09;;;10.20;80.24
4972;BME280;2501;51.214;6.768;2023-02-22T10:44:20;100877.09;;;10.65;78.33
4972;BME280;2501;51.214;6.768;2023-02-22T10:46:49;100880.53;;;10.59;77.65
4972;BME280;2501;51.214;6.768;2023-02-22T10:49:22;100871.88;;;10.69;77.42
4972;BME280;2501;51.214;6.768;2023-02-22T10:51:58;100865.63;;;10.51;77.01
4972;BME280;2501;51.214;6.768;2023-02-22T10:54:30;100870.97;;;10.66;76.49
4972;BME280;2501;51.214;6.768;2023-02-22T10:56:59;100862.38;;;10.85;75.84
4972;BME280;2501;51.214;6.768;2023-02-22T10:59:32;100864.19;;;10.97;75.41
4972;BME280;2501;51.214;6.768;2023-02-22T11:02:17;100853.91;;;11.39;73.97
4972;BME280;2501;51.214;6.768;2023-02-22T11:04:50;100853.97;;;11.55;71.84
4972;BME280;2501;51.214;6.768;2023-02-22T11:07:23;100857.44;;;11.50;71.74
4972;BME280;2501;51.214;6.768;2023-02-22T11:09:53;100851.28;;;11.44;72.05
4972;BME280;2501;51.214;6.768;2023-02-22T11:12:28;100848.84;;;11.87;71.38
4972;BME280;2501;51.214;6.768;2023-02-22T11:15:27;100847.97;;;11.98;70.46
4972;BME280;2501;51.214;6.768;2023-02-22T11:32:27;100849.53;;;11.38;70.57
4972;BME280;2501;51.214;6.768;2023-02-22T12:03:12;100811.16;;;12.47;68.75
4972;BME280;2501;51.214;6.768;2023-02-22T12:06:12;100811.16;;;12.47;68.54
4972;BME280;2501;51.214;6.768;2023-02-22T12:33:11;100797.88;;;13.03;66.13
4972;BME280;2501;51.214;6.768;2023-02-22T12:35:43;100794.38;;;13.07;65.37
4972;BME280;2501;51.214;6.768;2023-02-22T12:38:20;100794.34;;;13.16;65.46
4972;BME280;2501;51.214;6.768;2023-02-22T12:40:55;100793.47;;;13.25;65.01
4972;BME280;2501;51.214;6.768;2023-02-22T12:43:31;100792.59;;;13.18;65.06
4972;BME280;2501;51.214;6.768;2023-02-22T12:46:07;100789.84;;;13.44;64.16
4972;BME280;2501;51.214;6.768;2023-02-22T12:48:46;100786.44;;;13.27;64.07
4972;BME280;2501;51.214;6.768;2023-02-22T12:51:27;100796.97;;;13.22;63.54
4972;BME280;2501;51.214;6.768;2023-02-22T12:54:03;100795.25;;;13.11;64.29
4972;BME280;2501;51.214;6.768;2023-02-22T12:56:40;100794.34;;;13.16;63.85
4972;BME280;2501;51.214;6.768;2023-02-22T12:59:15;100789.78;;;13.52;63.61
4972;BME280;2501;51.214;6.768;2023-02-22T13:01:49;100784.47;;;13.63;62.34
4972;BME280;2501;51.214;6.768;2023-02-22T13:04:21;100787.78;;;13.93;60.86
4972;BME280;2501;51.214;6.768;2023-02-22T13:07:00;100770.03;;;14.18;60.72
4972;BME280;2501;51.214;6.768;2023-02-22T13:09:56;100775.47;;;13.96;60.44
4972;BME280;2501;51.214;6.768;2023-02-22T13:12:39;100777.56;;;14.59;59.17
4972;BME280;2501;51.214;6.768;2023-02-22T13:15:16;100776.31;;;14.02;59.51
4972;BME280;2501;51.214;6.768;2023-02-22T13:17:53;100777.22;;;13.95;59.84
4972;BME280;2501;51.214;6.768;2023-02-22T13:20:29;100785.25;;;13.80;59.41
4972;BME280;2501;51.214;6.768;2023-02-22T13:23:05;100778.22;;;13.77;60.28
4972;BME280;2501;51.214;6.768;2023-02-22T13:25:41;100780.75;;;13.96;59.85
4972;BME280;2501;51.214;6.768;2023-02-22T13:28:19;100781.72;;;13.82;60.75
4972;BME280;2501;51.214;6.768;2023-02-22T13:31:02;100776.38;;;13.91;60.59
4972;BME280;2501;51.214;6.768;2023-02-22T13:33:48;100775.38;;;14.05;60.46
4972;BME280;2501;51.214;6.768;2023-02-22T13:36:34;100765.47;;;14.34;59.90
4972;BME280;2501;51.214;6.768;2023-02-22T13:39:33;100775.09;;;14.41;59.22
4972;BME280;2501;51.214;6.768;2023-02-22T13:42:23;100773.78;;;13.85;58.03
4972;BME280;2501;51.214;6.768;2023-02-22T13:45:11;100763.13;;;14.02;57.98
4972;BME280;2501;51.214;6.768;2023-02-22T13:48:17;100763.66;;;14.41;57.06
4972;BME280;2501;51.214;6.768;2023-02-22T13:51:12;100762.75;;;14.45;56.70
4972;BME280;2501;51.214;6.768;2023-02-22T13:53:53;100760.38;;;14.16;57.68
4972;BME280;2501;51.214;6.768;2023-02-22T13:56:24;100763.59;;;14.51;56.83
4972;BME280;2501;51.214;6.768;2023-02-22T13:58:57;100756.22;;;14.81;56.27
4972;BME280;2501;51.214;6.768;2023-02-22T14:01:38;100754.38;;;14.89;55.51
4972;BME280;2501;51.214;6.768;2023-02-22T14:04:32;100753.06;;;14.48;57.05
4972;BME280;2501;51.214;6.768;2023-02-22T14:07:04;100753.13;;;15.17;56.29
4972;BME280;2501;51.214;6.768;2023-02-22T14:09:57;100762.44;;;14.74;56.37
4972;BME280;2501;51.214;6.768;2023-02-22T14:12:47;100763.94;;;14.97;57.69
4972;BME280;2501;51.214;6.768;2023-02-22T14:15:17;100767.47;;;14.96;57.57
4972;BME280;2501;51.214;6.768;2023-02-22T14:17:47;100768.78;;;14.59;58.52
4972;BME280;2501;51.214;6.768;2023-02-22T14:20:24;100758.28;;;14.53;59.58
4972;BME280;2501;51.214;6.768;2023-02-22T14:23:28;100764.78;;;14.12;60.11
4972;BME280;2501;51.214;6.768;2023-02-22T14:26:15;100760.19;;;14.36;60.10
4972;BME280;2501;51.214;6.768;2023-02-22T14:28:53;100760.19;;;14.34;60.34
4972;BME280;2501;51.214;6.768;2023-02-22T14:31:24;100762.34;;;14.86;59.69
4972;BME280;2501;51.214;6.768;2023-02-22T14:34:05;100753.13;;;14.41;59.19
4972;BME280;2501;51.214;6.768;2023-02-22T14:36:40;100760.69;;;14.74;59.45
4972;BME280;2501;51.214;6.768;2023-02-22T14:39:15;100749.59;;;14.40;59.77
4972;BME280;2501;51.214;6.768;2023-02-22T14:41:52;100760.75;;;14.70;59.89
4972;BME280;2501;51.214;6.768;2023-02-22T14:44:30;100757.19;;;14.72;60.22
4972;BME280;2501;51.214;6.768;2023-02-22T14:47:03;100758.88;;;14.79;60.25
4972;BME280;2501;51.214;6.768;2023-02-22T14:49:37;100761.09;;;15.14;58.88
4972;BME280;2501;51.214;6.768;2023-02-22T14:52:17;100756.28;;;15.44;58.35
4972;BME280;2501;51.214;6.768;2023-02-22T14:54:54;100756.88;;;15.00;59.18